Time;durP1;ratioP1;P1;durP2;ratioP2;P2;SDS_P1;SDS_P2;PMS_P1;PMS_P2;Temp;Humidity;BMP_temperature;BMP_pressure;BME280_temperature;BME280_humidity;BME280_pressure;Samples;Min_cycle;Max_cycle;Signal;HPM_P1;HPM_P2
2024/04/03 00:00:07;;;;;;;0.00;0.00;;;;;;;;;;5019946;28;20480;-84
2024/04/03 00:02:33;;;;;;;0.63;0.35;;;;;;;;;;5012757;28;20037;-84
2024/04/03 00:04:59;;;;;;;0.90;0.25;;;;;;;;;;5014586;28;20038;-84
2024/04/03 00:07:25;;;;;;;0.28;0.10;;;;;;;;;;4994784;28;20037;-84
2024/04/03 00:09:51;;;;;;;0.35;0.35;;;;;;;;;;5021819;28;20049;-84
2024/04/03 00:12:17;;;;;;;0.30;0.17;;;;;;;;;;5008192;28;20383;-84
2024/04/03 00:14:43;;;;;;;0.22;0.10;;;;;;;;;;5002095;28;20130;-84
2024/04/03 00:17:09;;;;;;;0.20;0.13;;;;;;;;;;5000181;28;20484;-84
2024/04/03 00:19:35;;;;;;;0.15;0.08;;;;;;;;;;4990883;28;20027;-84
2024/04/03 00:22:01;;;;;;;0.30;0.10;;;;;;;;;;4976044;28;20420;-83
2024/04/03 00:24:27;;;;;;;0.00;0.00;;;;;;;;;;5000636;28;20084;-83
2024/04/03 00:26:53;;;;;;;0.98;0.20;;;;;;;;;;4995475;28;20116;-84
2024/04/03 00:29:19;;;;;;;0.10;0.03;;;;;;;;;;4972141;28;20048;-84
2024/04/03 00:31:46;;;;;;;0.08;0.00;;;;;;;;;;4998002;28;20034;-84
2024/04/03 00:34:12;;;;;;;0.03;0.00;;;;;;;;;;4999436;28;20049;-84
2024/04/03 00:36:38;;;;;;;0.68;0.30;;;;;;;;;;4980092;28;20452;-84
2024/04/03 00:39:04;;;;;;;0.08;0.00;;;;;;;;;;4974409;28;20044;-83
2024/04/03 00:41:30;;;;;;;0.10;0.05;;;;;;;;;;4983905;28;20416;-84
2024/04/03 00:43:55;;;;;;;0.10;0.00;;;;;;;;;;4968283;28;20031;-84
2024/04/03 00:46:22;;;;;;;0.17;0.05;;;;;;;;;;4989731;28;20045;-84
2024/04/03 00:48:48;;;;;;;1.33;0.10;;;;;;;;;;4991786;28;20042;-84
2024/04/03 00:51:14;;;;;;;0.00;0.00;;;;;;;;;;4994330;28;20358;-84
2024/04/03 00:53:40;;;;;;;1.65;0.13;;;;;;;;;;4996266;28;20125;-84
2024/04/03 00:56:07;;;;;;;0.45;0.10;;;;;;;;;;4975091;28;20777;-84
2024/04/03 00:58:34;;;;;;;0.00;0.00;;;;;;;;;;4990656;28;20036;-85
2024/04/03 01:01:00;;;;;;;0.00;0.00;;;;;;;;;;4992586;28;20022;-83
2024/04/03 01:03:26;;;;;;;0.38;0.05;;;;;;;;;;4994422;28;20037;-83
2024/04/03 01:06:05;;;;;;;0.03;0.00;;;;;;;;;;4988369;28;20027;-83
2024/04/03 01:08:31;;;;;;;4.38;0.03;;;;;;;;;;4991736;28;20033;-83
2024/04/03 01:10:58;;;;;;;0.00;0.00;;;;;;;;;;4992092;28;20034;-83
2024/04/03 01:13:24;;;;;;;0.00;0.00;;;;;;;;;;5007630;28;20514;-84
2024/04/03 01:15:53;;;;;;;0.65;0.10;;;;;;;;;;5020761;28;20091;-84
2024/04/03 01:18:19;;;;;;;0.70;0.28;;;;;;;;;;5014444;28;20126;-84
2024/04/03 01:20:46;;;;;;;0.95;0.15;;;;;;;;;;5023607;28;20100;-83
2024/04/03 01:23:11;;;;;;;1.92;0.20;;;;;;;;;;4989832;28;20444;-83
2024/04/03 01:25:37;;;;;;;0.10;0.10;;;;;;;;;;4979413;28;20073;-84
2024/04/03 01:28:04;;;;;;;0.15;0.00;;;;;;;;;;5011242;28;20030;-84
2024/04/03 01:30:30;;;;;;;0.90;0.10;;;;;;;;;;5010986;28;20109;-84
2024/04/03 01:32:56;;;;;;;0.00;0.00;;;;;;;;;;4992616;28;20037;-84
2024/04/03 01:35:22;;;;;;;0.05;0.05;;;;;;;;;;4994227;28;20057;-84
2024/04/03 01:37:48;;;;;;;0.00;0.00;;;;;;;;;;4993027;28;20038;-83
2024/04/03 01:40:14;;;;;;;0.68;0.68;;;;;;;;;;4995921;28;20116;-84
2024/04/03 01:42:40;;;;;;;0.00;0.00;;;;;;;;;;5011215;28;20036;-83
2024/04/03 01:45:06;;;;;;;0.00;0.00;;;;;;;;;;5012921;28;20045;-83
2024/04/03 01:47:32;;;;;;;2.00;0.43;;;;;;;;;;5010726;28;20033;-83
2024/04/03 01:50:00;;;;;;;0.55;0.20;;;;;;;;;;5019381;28;20048;-84
2024/04/03 01:52:26;;;;;;;1.02;0.13;;;;;;;;;;5012012;28;20041;-83
2024/04/03 01:54:52;;;;;;;0.57;0.52;;;;;;;;;;5018177;28;20052;-83
2024/04/03 01:57:18;;;;;;;0.00;0.00;;;;;;;;;;5004948;28;20038;-83
2024/04/03 01:59:44;;;;;;;0.00;0.00;;;;;;;;;;5012777;28;20034;-84
2024/04/03 02:02:10;;;;;;;3.22;0.45;;;;;;;;;;5010846;28;20081;-84
2024/04/03 02:04:36;;;;;;;0.30;0.10;;;;;;;;;;5015031;28;20034;-83
2024/04/03 02:07:02;;;;;;;0.00;0.00;;;;;;;;;;4994686;28;20049;-84
2024/04/03 02:09:28;;;;;;;0.55;0.10;;;;;;;;;;5009109;28;20547;-84
2024/04/03 02:11:54;;;;;;;0.52;0.28;;;;;;;;;;4999966;28;20116;-84
2024/04/03 02:14:20;;;;;;;0.10;0.05;;;;;;;;;;5010533;28;20058;-84
2024/04/03 02:16:46;;;;;;;0.00;0.00;;;;;;;;;;4988766;28;20049;-84
2024/04/03 02:19:13;;;;;;;0.60;0.40;;;;;;;;;;5002481;28;20041;-84
2024/04/03 02:21:39;;;;;;;0.03;0.03;;;;;;;;;;5011199;28;20060;-84
2024/04/03 02:24:05;;;;;;;1.25;0.57;;;;;;;;;;5007220;28;20026;-84
2024/04/03 02:26:31;;;;;;;0.30;0.20;;;;;;;;;;5014655;28;20038;-83
2024/04/03 02:28:57;;;;;;;0.15;0.15;;;;;;;;;;5010095;28;20063;-84
2024/04/03 02:31:23;;;;;;;1.35;0.70;;;;;;;;;;5015548;28;20038;-83
2024/04/03 02:33:49;;;;;;;0.47;0.08;;;;;;;;;;5013332;28;20488;-84
2024/04/03 02:36:16;;;;;;;0.15;0.10;;;;;;;;;;5009905;28;20038;-84
2024/04/03 02:38:42;;;;;;;0.10;0.10;;;;;;;;;;5011332;28;20029;-83
2024/04/03 02:41:08;;;;;;;1.42;0.20;;;;;;;;;;4991887;28;20030;-83
2024/04/03 02:43:34;;;;;;;0.95;0.17;;;;;;;;;;5007462;28;20036;-84
2024/04/03 02:46:00;;;;;;;0.28;0.20;;;;;;;;;;5009878;28;20387;-84
2024/04/03 02:48:26;;;;;;;0.00;0.00;;;;;;;;;;5002483;28;20111;-84
2024/04/03 02:51:05;;;;;;;2.90;0.63;;;;;;;;;;5009512;28;20551;-84
2024/04/03 02:53:32;;;;;;;0.70;0.30;;;;;;;;;;4981951;28;20041;-84
2024/04/03 02:56:16;;;;;;;0.17;0.10;;;;;;;;;;5006737;28;20480;-85
2024/04/03 02:58:42;;;;;;;0.00;0.00;;;;;;;;;;4979645;28;20039;-84
2024/04/03 03:01:09;;;;;;;0.95;0.13;;;;;;;;;;4988905;28;20022;-84
2024/04/03 03:03:35;;;;;;;0.00;0.00;;;;;;;;;;5004286;28;20558;-84
2024/04/03 03:06:03;;;;;;;1.00;0.55;;;;;;;;;;4995295;28;20494;-84
2024/04/03 03:08:30;;;;;;;0.03;0.00;;;;;;;;;;4986583;28;20045;-84
2024/04/03 03:10:56;;;;;;;0.63;0.38;;;;;;;;;;5003668;28;20089;-84
2024/04/03 03:13:26;;;;;;;0.10;0.00;;;;;;;;;;5008755;28;20069;-84
2024/04/03 03:15:55;;;;;;;0.88;0.08;;;;;;;;;;5009801;28;20052;-84
2024/04/03 03:18:22;;;;;;;0.32;0.30;;;;;;;;;;5005708;28;20053;-84
2024/04/03 03:20:48;;;;;;;1.38;0.68;;;;;;;;;;5011975;28;20053;-84
2024/04/03 03:23:14;;;;;;;0.90;0.28;;;;;;;;;;5009295;28;20383;-83
2024/04/03 03:25:40;;;;;;;0.05;0.00;;;;;;;;;;4993425;28;20064;-84
2024/04/03 03:28:06;;;;;;;0.22;0.00;;;;;;;;;;4981514;28;20062;-83
2024/04/03 03:30:32;;;;;;;0.95;0.10;;;;;;;;;;5008379;28;20026;-84
2024/04/03 03:32:58;;;;;;;0.25;0.08;;;;;;;;;;5011666;28;20770;-83
2024/04/03 03:35:24;;;;;;;0.45;0.10;;;;;;;;;;5013364;28;20029;-84
2024/04/03 03:37:50;;;;;;;1.85;0.10;;;;;;;;;;4984274;28;20392;-84
2024/04/03 03:40:17;;;;;;;1.15;0.20;;;;;;;;;;5014708;28;20038;-84
2024/04/03 03:42:43;;;;;;;0.90;0.38;;;;;;;;;;5006977;28;20042;-84
2024/04/03 03:45:09;;;;;;;1.67;0.40;;;;;;;;;;5008015;28;20034;-84
2024/04/03 03:47:35;;;;;;;0.35;0.20;;;;;;;;;;4990767;28;20042;-83
2024/04/03 03:52:45;;;;;;;0.20;0.10;;;;;;;;;;5002489;28;20056;-83
2024/04/03 03:55:11;;;;;;;0.70;0.13;;;;;;;;;;5003879;28;20056;-84
2024/04/03 03:57:37;;;;;;;0.30;0.22;;;;;;;;;;4980546;28;20185;-83
2024/04/03 04:00:05;;;;;;;1.17;0.20;;;;;;;;;;5005444;28;20932;-83
2024/04/03 04:02:31;;;;;;;1.58;0.10;;;;;;;;;;4999846;28;20026;-84
2024/04/03 04:04:57;;;;;;;0.17;0.10;;;;;;;;;;5010159;28;20064;-84
2024/04/03 04:07:23;;;;;;;0.55;0.25;;;;;;;;;;5000648;28;20077;-84
2024/04/03 04:09:49;;;;;;;0.00;0.00;;;;;;;;;;5000935;28;20049;-83
2024/04/03 04:12:16;;;;;;;0.00;0.00;;;;;;;;;;5009862;28;20726;-84
2024/04/03 04:14:42;;;;;;;0.10;0.03;;;;;;;;;;5005868;28;20406;-84
2024/04/03 04:17:08;;;;;;;0.20;0.10;;;;;;;;;;5006227;28;20029;-83
2024/04/03 04:19:34;;;;;;;0.30;0.10;;;;;;;;;;5010031;28;20041;-84
2024/04/03 04:22:00;;;;;;;1.88;0.10;;;;;;;;;;4994974;28;20122;-84
2024/04/03 04:24:26;;;;;;;1.38;0.20;;;;;;;;;;5014987;28;20041;-83
2024/04/03 04:26:59;;;;;;;1.88;0.10;;;;;;;;;;5010190;28;20026;-83
2024/04/03 04:29:25;;;;;;;0.00;0.00;;;;;;;;;;5015656;28;20554;-84
2024/04/03 04:31:51;;;;;;;0.20;0.10;;;;;;;;;;4996787;28;20423;-84
2024/04/03 04:34:17;;;;;;;0.93;0.10;;;;;;;;;;5005194;28;20029;-83
2024/04/03 04:36:43;;;;;;;0.20;0.10;;;;;;;;;;4997492;28;20115;-84
2024/04/03 04:39:09;;;;;;;0.25;0.10;;;;;;;;;;5011237;28;20542;-85
2024/04/03 04:41:35;;;;;;;0.52;0.35;;;;;;;;;;5015745;28;20030;-85
2024/04/03 04:44:02;;;;;;;0.10;0.10;;;;;;;;;;4995388;28;20483;-85
2024/04/03 04:46:28;;;;;;;0.10;0.10;;;;;;;;;;5002809;28;20034;-84
2024/04/03 04:48:54;;;;;;;0.98;0.30;;;;;;;;;;5003889;28;20129;-85
2024/04/03 04:51:21;;;;;;;0.50;0.20;;;;;;;;;;5016463;28;20036;-85
2024/04/03 04:53:47;;;;;;;0.88;0.40;;;;;;;;;;5011788;28;20038;-86
2024/04/03 04:56:13;;;;;;;0.88;0.38;;;;;;;;;;4995682;28;20053;-85
2024/04/03 04:58:39;;;;;;;0.88;0.17;;;;;;;;;;4994008;28;20076;-84
2024/04/03 05:01:06;;;;;;;0.00;0.00;;;;;;;;;;5006946;28;20054;-84
2024/04/03 05:03:32;;;;;;;3.13;0.15;;;;;;;;;;4984555;28;20047;-84
2024/04/03 05:05:59;;;;;;;3.45;0.28;;;;;;;;;;5004114;28;20036;-84
2024/04/03 05:08:25;;;;;;;0.38;0.08;;;;;;;;;;5011309;28;20045;-84
2024/04/03 05:10:57;;;;;;;0.30;0.05;;;;;;;;;;5007500;28;20109;-86
2024/04/03 05:13:23;;;;;;;;;;;;;;;;;;5006554;28;20113;-86
2024/04/03 05:15:49;;;;;;;0.30;0.10;;;;;;;;;;5002302;28;19928;-87
2024/04/03 05:18:15;;;;;;;0.47;0.35;;;;;;;;;;5009149;28;20030;-86
2024/04/03 05:20:42;;;;;;;0.20;0.20;;;;;;;;;;4983260;28;20519;-86
2024/04/03 05:23:08;;;;;;;0.08;0.00;;;;;;;;;;4980291;28;20033;-86
2024/04/03 05:25:34;;;;;;;0.00;0.00;;;;;;;;;;4993055;28;20042;-87
2024/04/03 05:28:00;;;;;;;0.63;0.00;;;;;;;;;;4986526;28;20030;-87
2024/04/03 05:30:26;;;;;;;0.28;0.10;;;;;;;;;;5009357;28;20049;-86
2024/04/03 05:32:52;;;;;;;0.55;0.17;;;;;;;;;;5006930;28;20045;-87
2024/04/03 05:35:18;;;;;;;0.20;0.10;;;;;;;;;;4985463;28;20061;-87
2024/04/03 05:37:45;;;;;;;0.13;0.00;;;;;;;;;;4979727;28;20026;-84
2024/04/03 05:40:14;;;;;;;0.45;0.20;;;;;;;;;;4984214;28;20045;-88
2024/04/03 05:42:40;;;;;;;0.45;0.35;;;;;;;;;;4990490;28;20058;-87
2024/04/03 05:45:06;;;;;;;1.65;0.80;;;;;;;;;;4984743;28;20069;-86
2024/04/03 05:47:33;;;;;;;0.35;0.17;;;;;;;;;;5004165;28;20554;-87
2024/04/03 05:50:05;;;;;;;1.60;0.45;;;;;;;;;;4993363;28;20583;-88
2024/04/03 05:52:32;;;;;;;0.30;0.10;;;;;;;;;;4982501;28;20084;-86
2024/04/03 05:54:58;;;;;;;1.05;0.20;;;;;;;;;;4993035;28;20379;-88
2024/04/03 05:57:24;;;;;;;1.10;1.00;;;;;;;;;;4986142;28;20026;-88
2024/04/03 05:59:50;;;;;;;0.57;0.52;;;;;;;;;;4980494;28;20082;-88
2024/04/03 06:02:16;;;;;;;0.80;0.52;;;;;;;;;;4984609;28;20033;-86
2024/04/03 06:04:42;;;;;;;0.20;0.20;;;;;;;;;;4982896;28;20559;-87
2024/04/03 06:07:08;;;;;;;0.30;0.30;;;;;;;;;;4987052;28;20037;-87
2024/04/03 06:09:34;;;;;;;0.57;0.10;;;;;;;;;;4984126;28;20061;-87
2024/04/03 06:12:00;;;;;;;4.78;0.60;;;;;;;;;;4990917;28;20034;-86
2024/04/03 06:14:27;;;;;;;0.50;0.35;;;;;;;;;;4993017;28;20651;-86
2024/04/03 06:16:53;;;;;;;0.63;0.10;;;;;;;;;;4992767;28;20060;-87
2024/04/03 06:19:19;;;;;;;0.35;0.10;;;;;;;;;;4995274;28;20042;-87
2024/04/03 06:21:45;;;;;;;0.40;0.20;;;;;;;;;;4986309;28;20030;-87
2024/04/03 06:24:11;;;;;;;2.75;0.43;;;;;;;;;;4994029;28;20147;-86
2024/04/03 06:26:37;;;;;;;0.13;0.10;;;;;;;;;;4986473;28;20140;-87
2024/04/03 06:29:03;;;;;;;0.70;0.30;;;;;;;;;;4995875;28;20528;-87
2024/04/03 06:31:30;;;;;;;1.35;0.40;;;;;;;;;;4992977;28;20083;-87
2024/04/03 06:33:58;;;;;;;0.68;0.30;;;;;;;;;;4992971;28;20042;-87
2024/04/03 06:36:25;;;;;;;0.98;0.40;;;;;;;;;;4998854;28;20033;-86
2024/04/03 06:38:51;;;;;;;1.05;0.32;;;;;;;;;;4979676;28;20034;-87
2024/04/03 06:41:17;;;;;;;1.60;0.13;;;;;;;;;;4988706;28;20113;-87
2024/04/03 06:43:43;;;;;;;0.52;0.20;;;;;;;;;;5000102;28;20164;-87
2024/04/03 06:46:14;;;;;;;0.15;0.08;;;;;;;;;;4992274;28;20045;-87
2024/04/03 06:48:45;;;;;;;0.90;0.30;;;;;;;;;;4991096;28;20045;-87
2024/04/03 06:51:11;;;;;;;0.85;0.63;;;;;;;;;;4990077;28;20093;-87
2024/04/03 06:53:37;;;;;;;0.43;0.03;;;;;;;;;;4993554;28;20068;-87
2024/04/03 06:56:03;;;;;;;0.40;0.25;;;;;;;;;;4992882;28;20797;-86
2024/04/03 06:58:36;;;;;;;1.45;0.47;;;;;;;;;;4985882;28;20038;-87
2024/04/03 07:01:03;;;;;;;1.65;0.45;;;;;;;;;;4984902;28;20030;-86
2024/04/03 07:03:32;;;;;;;0.08;0.00;;;;;;;;;;4975442;28;20038;-87
2024/04/03 07:05:58;;;;;;;2.08;0.68;;;;;;;;;;4991710;28;20041;-88
2024/04/03 07:08:24;;;;;;;7.75;0.35;;;;;;;;;;4988647;28;20567;-87
2024/04/03 07:10:51;;;;;;;1.90;0.50;;;;;;;;;;4996377;28;20045;-86
2024/04/03 07:13:17;;;;;;;4.90;0.30;;;;;;;;;;4991465;28;20057;-86
2024/04/03 07:15:49;;;;;;;1.95;0.70;;;;;;;;;;4982518;28;20034;-86
2024/04/03 07:18:16;;;;;;;0.65;0.10;;;;;;;;;;4991628;28;20030;-85
2024/04/03 07:20:42;;;;;;;0.20;0.20;;;;;;;;;;4985293;28;20041;-87
2024/04/03 07:23:08;;;;;;;0.10;0.10;;;;;;;;;;4987240;28;20030;-86
2024/04/03 07:25:37;;;;;;;1.08;0.95;;;;;;;;;;4989146;28;20145;-87
2024/04/03 07:28:13;;;;;;;0.93;0.35;;;;;;;;;;4988806;28;20034;-88
2024/04/03 07:30:40;;;;;;;1.10;0.80;;;;;;;;;;4984181;28;20095;-88
2024/04/03 07:33:08;;;;;;;2.42;0.20;;;;;;;;;;4986151;28;20043;-88
2024/04/03 07:35:34;;;;;;;0.38;0.10;;;;;;;;;;4981617;28;20068;-88
2024/04/03 07:38:00;;;;;;;1.38;0.22;;;;;;;;;;4990751;28;20133;-88
2024/04/03 07:40:26;;;;;;;3.80;0.60;;;;;;;;;;4995928;28;20125;-87
2024/04/03 07:42:52;;;;;;;6.78;0.35;;;;;;;;;;4994062;28;20096;-87
2024/04/03 07:45:18;;;;;;;2.38;0.70;;;;;;;;;;4994499;28;20121;-87
2024/04/03 07:47:47;;;;;;;1.08;0.80;;;;;;;;;;4993996;28;20034;-87
2024/04/03 07:50:13;;;;;;;0.68;0.30;;;;;;;;;;5008766;28;20041;-87
2024/04/03 07:52:39;;;;;;;10.32;0.20;;;;;;;;;;4992997;28;20032;-87
2024/04/03 07:55:05;;;;;;;0.17;0.10;;;;;;;;;;5001980;28;20042;-87
2024/04/03 07:57:33;;;;;;;0.35;0.00;;;;;;;;;;4995266;28;20048;-87
2024/04/03 07:59:59;;;;;;;0.10;0.10;;;;;;;;;;4992316;28;20044;-87
2024/04/03 08:02:25;;;;;;;0.00;0.00;;;;;;;;;;4992392;28;20034;-88
2024/04/03 08:04:51;;;;;;;0.57;0.35;;;;;;;;;;4998480;28;20038;-88
2024/04/03 08:07:17;;;;;;;0.35;0.20;;;;;;;;;;4982199;28;20460;-87
2024/04/03 08:09:43;;;;;;;0.10;0.10;;;;;;;;;;4982930;28;20065;-87
2024/04/03 08:12:09;;;;;;;0.85;0.43;;;;;;;;;;4990798;28;20069;-90
2024/04/03 08:14:35;;;;;;;0.10;0.00;;;;;;;;;;4977789;28;20504;-86
2024/04/03 08:17:01;;;;;;;0.00;0.00;;;;;;;;;;4983665;28;20032;-87
2024/04/03 08:19:27;;;;;;;0.00;0.00;;;;;;;;;;4975257;28;20117;-87
2024/04/03 08:21:53;;;;;;;0.00;0.00;;;;;;;;;;4974658;28;20487;-87
2024/04/03 08:24:19;;;;;;;0.00;0.00;;;;;;;;;;4976096;28;20042;-87
2024/04/03 08:26:45;;;;;;;1.30;0.10;;;;;;;;;;4975493;28;20033;-87
2024/04/03 08:29:12;;;;;;;4.90;1.33;;;;;;;;;;4961585;28;20065;-87
2024/04/03 08:31:38;;;;;;;0.73;0.35;;;;;;;;;;4975502;28;20036;-88
2024/04/03 08:34:04;;;;;;;1.20;0.20;;;;;;;;;;4976363;28;20042;-86
2024/04/03 08:36:30;;;;;;;3.00;0.30;;;;;;;;;;4974801;28;20650;-86
2024/04/03 08:38:56;;;;;;;0.10;0.00;;;;;;;;;;4965675;28;20585;-86
2024/04/03 08:41:24;;;;;;;0.00;0.00;;;;;;;;;;4958954;28;20023;-86
2024/04/03 08:43:51;;;;;;;0.00;0.00;;;;;;;;;;4979453;28;20042;-86
2024/04/03 08:46:18;;;;;;;0.03;0.03;;;;;;;;;;4964011;28;20062;-85
2024/04/03 08:48:45;;;;;;;0.30;0.05;;;;;;;;;;5001283;28;20042;-88
2024/04/03 08:51:11;;;;;;;0.40;0.20;;;;;;;;;;4971109;28;20093;-85
2024/04/03 08:53:37;;;;;;;0.32;0.30;;;;;;;;;;4988956;28;20038;-86
2024/04/03 08:56:03;;;;;;;0.40;0.30;;;;;;;;;;4970665;28;20468;-84
2024/04/03 08:58:30;;;;;;;0.22;0.10;;;;;;;;;;4977298;28;20117;-85
2024/04/03 09:00:57;;;;;;;0.22;0.10;;;;;;;;;;4978504;28;20073;-86
2024/04/03 09:03:23;;;;;;;0.00;0.00;;;;;;;;;;4977176;28;20426;-86
2024/04/03 09:05:52;;;;;;;0.10;0.10;;;;;;;;;;4981430;28;20030;-86
2024/04/03 09:08:19;;;;;;;0.10;0.00;;;;;;;;;;4971859;28;20042;-87
2024/04/03 09:11:06;;;;;;;0.10;0.00;;;;;;;;;;4975010;28;20037;-87
2024/04/03 09:13:31;;;;;;;0.30;0.10;;;;;;;;;;4998138;28;20173;-86
2024/04/03 09:15:58;;;;;;;0.85;0.10;;;;;;;;;;4982853;28;20038;-86
2024/04/03 09:18:24;;;;;;;0.95;0.28;;;;;;;;;;4981048;28;20027;-87
2024/04/03 09:20:52;;;;;;;0.00;0.00;;;;;;;;;;4994191;28;20494;-86
2024/04/03 09:23:18;;;;;;;0.45;0.25;;;;;;;;;;4974202;28;20029;-85
2024/04/03 09:25:44;;;;;;;0.75;0.20;;;;;;;;;;4973188;28;20034;-85
2024/04/03 09:28:10;;;;;;;0.45;0.32;;;;;;;;;;4964914;28;20093;-85
2024/04/03 09:30:49;;;;;;;1.40;0.20;;;;;;;;;;4960912;28;20420;-85
2024/04/03 09:33:18;;;;;;;0.30;0.10;;;;;;;;;;4959666;28;20921;-86
2024/04/03 09:35:44;;;;;;;0.20;0.20;;;;;;;;;;4967747;28;20468;-85
2024/04/03 09:38:11;;;;;;;0.00;0.00;;;;;;;;;;4958232;28;20461;-85
2024/04/03 09:40:37;;;;;;;0.47;0.00;;;;;;;;;;4993798;28;20850;-86
2024/04/03 09:43:07;;;;;;;0.00;0.00;;;;;;;;;;4976898;28;20613;-86
2024/04/03 09:45:34;;;;;;;0.30;0.10;;;;;;;;;;4962608;28;20046;-87
2024/04/03 09:48:01;;;;;;;0.00;0.00;;;;;;;;;;4986608;28;20065;-86
2024/04/03 09:50:36;;;;;;;0.20;0.20;;;;;;;;;;4961860;28;20428;-85
2024/04/03 09:53:03;;;;;;;0.55;0.22;;;;;;;;;;4974370;28;20049;-86
2024/04/03 09:55:29;;;;;;;0.22;0.10;;;;;;;;;;4977740;28;20038;-85
2024/04/03 09:57:59;;;;;;;1.10;0.52;;;;;;;;;;4980338;28;20085;-86
2024/04/03 10:00:25;;;;;;;0.73;0.30;;;;;;;;;;4961603;28;20817;-87
2024/04/03 10:02:51;;;;;;;0.25;0.10;;;;;;;;;;4965524;28;20038;-89
2024/04/03 10:05:21;;;;;;;0.00;0.00;;;;;;;;;;4972978;28;20034;-85
2024/04/03 10:08:03;;;;;;;0.00;0.00;;;;;;;;;;4968964;28;20035;-87
2024/04/03 10:13:32;;;;;;;0.30;0.25;;;;;;;;;;4999352;28;20053;-89
2024/04/03 10:16:07;;;;;;;0.43;0.20;;;;;;;;;;5005678;28;20041;-88
2024/04/03 10:18:38;;;;;;;2.72;0.32;;;;;;;;;;4987514;28;20617;-87
2024/04/03 10:21:04;;;;;;;1.97;0.40;;;;;;;;;;5009100;28;20033;-87
2024/04/03 10:23:30;;;;;;;1.40;0.50;;;;;;;;;;5002526;28;20069;-87
2024/04/03 10:25:56;;;;;;;0.25;0.22;;;;;;;;;;4993153;28;20097;-88
2024/04/03 10:28:22;;;;;;;0.75;0.45;;;;;;;;;;5000820;28;20037;-86
2024/04/03 10:30:58;;;;;;;0.57;0.20;;;;;;;;;;4982236;28;20391;-87
2024/04/03 10:33:24;;;;;;;1.98;0.40;;;;;;;;;;4985753;28;20061;-89
2024/04/03 10:35:50;;;;;;;0.32;0.15;;;;;;;;;;4997261;28;20064;-87
2024/04/03 10:38:16;;;;;;;1.60;0.75;;;;;;;;;;4993015;28;20376;-87
2024/04/03 10:40:45;;;;;;;0.70;0.30;;;;;;;;;;4989556;28;20495;-86
2024/04/03 10:43:11;;;;;;;0.55;0.45;;;;;;;;;;4995252;28;20038;-86
2024/04/03 10:45:37;;;;;;;1.23;0.63;;;;;;;;;;5003314;28;20053;-91
2024/04/03 10:48:03;;;;;;;0.13;0.10;;;;;;;;;;4991985;28;20021;-87
2024/04/03 10:50:29;;;;;;;0.17;0.10;;;;;;;;;;4993621;28;20040;-86
2024/04/03 10:52:55;;;;;;;0.10;0.10;;;;;;;;;;5011526;28;20128;-86
2024/04/03 10:55:22;;;;;;;0.32;0.20;;;;;;;;;;4988528;28;20044;-87
2024/04/03 10:57:48;;;;;;;0.38;0.15;;;;;;;;;;4978913;28;20030;-88
2024/04/03 11:00:15;;;;;;;3.05;0.77;;;;;;;;;;4996278;28;20029;-87
2024/04/03 11:02:47;;;;;;;0.43;0.30;;;;;;;;;;4988380;28;20038;-86
2024/04/03 11:05:17;;;;;;;0.75;0.30;;;;;;;;;;5006783;28;20091;-87
2024/04/03 11:07:46;;;;;;;0.90;0.30;;;;;;;;;;4990005;28;20042;-87
2024/04/03 11:10:12;;;;;;;1.45;0.13;;;;;;;;;;4991562;28;20029;-87
2024/04/03 11:12:38;;;;;;;0.55;0.20;;;;;;;;;;4990140;28;20066;-88
2024/04/03 11:15:09;;;;;;;0.38;0.13;;;;;;;;;;4992600;28;20057;-87
2024/04/03 11:17:36;;;;;;;0.00;0.00;;;;;;;;;;4988376;28;20104;-87
2024/04/03 11:20:02;;;;;;;1.05;0.20;;;;;;;;;;4998219;28;20456;-86
2024/04/03 11:22:29;;;;;;;3.05;0.40;;;;;;;;;;4985896;28;20036;-87
2024/04/03 11:24:55;;;;;;;0.30;0.13;;;;;;;;;;4994020;28;20029;-85
2024/04/03 11:27:22;;;;;;;1.35;0.38;;;;;;;;;;4990592;28;20423;-86
2024/04/03 11:29:48;;;;;;;4.15;0.30;;;;;;;;;;4986243;28;20066;-87
2024/04/03 11:32:16;;;;;;;0.10;0.10;;;;;;;;;;5009552;28;20079;-87
2024/04/03 11:34:42;;;;;;;0.80;0.52;;;;;;;;;;5015280;28;20030;-88
2024/04/03 11:37:08;;;;;;;1.88;0.40;;;;;;;;;;4998680;28;20037;-86
2024/04/03 11:39:34;;;;;;;1.02;0.10;;;;;;;;;;4996940;28;20026;-87
2024/04/03 11:42:03;;;;;;;0.20;0.10;;;;;;;;;;4996456;28;20033;-87
2024/04/03 11:44:29;;;;;;;0.40;0.30;;;;;;;;;;4997104;28;20038;-86
2024/04/03 11:46:55;;;;;;;2.70;0.50;;;;;;;;;;5005175;28;20038;-88
2024/04/03 11:49:21;;;;;;;0.10;0.10;;;;;;;;;;4992966;28;20415;-86
2024/04/03 11:51:48;;;;;;;0.68;0.20;;;;;;;;;;4996242;28;20468;-87
2024/04/03 11:54:14;;;;;;;0.38;0.20;;;;;;;;;;5015365;28;20052;-88
2024/04/03 11:56:40;;;;;;;1.13;0.25;;;;;;;;;;4999548;28;20045;-89
2024/04/03 11:59:09;;;;;;;1.23;0.82;;;;;;;;;;5000102;28;20026;-90
2024/04/03 12:01:38;;;;;;;2.60;0.57;;;;;;;;;;5000020;28;20790;-90
2024/04/03 12:04:05;;;;;;;1.23;0.47;;;;;;;;;;4994396;28;20027;-89
2024/04/03 12:06:31;;;;;;;0.20;0.20;;;;;;;;;;4981571;28;20037;-89
2024/04/03 12:08:57;;;;;;;2.65;0.40;;;;;;;;;;5009372;28;20034;-89
2024/04/03 12:11:26;;;;;;;1.17;0.30;;;;;;;;;;4997723;28;20045;-89
2024/04/03 12:13:52;;;;;;;1.40;0.65;;;;;;;;;;4994278;28;20491;-88
2024/04/03 12:16:22;;;;;;;0.38;0.20;;;;;;;;;;4994925;28;20540;-88
2024/04/03 12:18:49;;;;;;;0.30;0.10;;;;;;;;;;5004610;28;20064;-89
2024/04/03 12:21:16;;;;;;;0.30;0.20;;;;;;;;;;5017037;28;20038;-88
2024/04/03 12:23:44;;;;;;;2.97;0.30;;;;;;;;;;5019302;28;20064;-88
2024/04/03 12:26:15;;;;;;;0.20;0.15;;;;;;;;;;5016617;28;20050;-88
2024/04/03 12:29:04;;;;;;;0.00;0.00;;;;;;;;;;5000122;28;20038;-89
2024/04/03 12:31:33;;;;;;;0.00;0.00;;;;;;;;;;4999423;28;20042;-92
2024/04/03 12:33:59;;;;;;;0.00;0.00;;;;;;;;;;4997841;28;20039;-88
2024/04/03 12:36:25;;;;;;;0.00;0.00;;;;;;;;;;4991874;28;20039;-88
2024/04/03 12:38:53;;;;;;;0.10;0.10;;;;;;;;;;4982089;28;20034;-89
2024/04/03 12:41:21;;;;;;;0.00;0.00;;;;;;;;;;4991332;28;20038;-88
2024/04/03 12:43:47;;;;;;;0.10;0.00;;;;;;;;;;4993462;28;20041;-86
2024/04/03 12:46:13;;;;;;;0.00;0.00;;;;;;;;;;4990839;28;20453;-89
2024/04/03 12:48:40;;;;;;;0.00;0.00;;;;;;;;;;4992810;28;20041;-87
2024/04/03 12:51:06;;;;;;;0.90;0.30;;;;;;;;;;4999865;28;20376;-88
2024/04/03 12:53:32;;;;;;;0.15;0.00;;;;;;;;;;4997928;28;20502;-87
2024/04/03 12:55:59;;;;;;;0.10;0.10;;;;;;;;;;4990971;28;20034;-85
2024/04/03 12:58:25;;;;;;;0.47;0.15;;;;;;;;;;4998211;28;20039;-86
2024/04/03 13:00:51;;;;;;;2.00;0.38;;;;;;;;;;4984050;28;20042;-85
2024/04/03 13:03:17;;;;;;;0.47;0.20;;;;;;;;;;4986461;28;20042;-85
2024/04/03 13:05:48;;;;;;;0.10;0.10;;;;;;;;;;4991149;28;20089;-85
2024/04/03 13:08:14;;;;;;;0.05;0.00;;;;;;;;;;4991887;28;20396;-86
2024/04/03 13:10:40;;;;;;;0.00;0.00;;;;;;;;;;4984945;28;20030;-82
2024/04/03 13:13:06;;;;;;;0.65;0.28;;;;;;;;;;4989695;28;20572;-84
2024/04/03 13:15:33;;;;;;;0.10;0.00;;;;;;;;;;4985805;28;20042;-88
2024/04/03 13:18:19;;;;;;;0.00;0.00;;;;;;;;;;4990061;28;20452;-87
2024/04/03 13:20:45;;;;;;;0.15;0.08;;;;;;;;;;4999885;28;20030;-88
2024/04/03 13:23:29;;;;;;;0.00;0.00;;;;;;;;;;4974835;28;20403;-87
2024/04/03 13:25:55;;;;;;;0.38;0.17;;;;;;;;;;4987222;28;20038;-88
2024/04/03 13:28:21;;;;;;;0.00;0.00;;;;;;;;;;4980933;28;20045;-88
2024/04/03 13:30:47;;;;;;;0.00;0.00;;;;;;;;;;5003032;28;20037;-89
2024/04/03 13:33:14;;;;;;;1.13;0.05;;;;;;;;;;4983348;28;20039;-88
2024/04/03 13:35:40;;;;;;;1.95;0.17;;;;;;;;;;4994631;28;20046;-89
2024/04/03 13:38:06;;;;;;;0.20;0.10;;;;;;;;;;4987402;28;20025;-89
2024/04/03 13:40:32;;;;;;;0.08;0.03;;;;;;;;;;4998361;28;20636;-89
2024/04/03 13:42:58;;;;;;;0.20;0.03;;;;;;;;;;4986432;28;20041;-89
2024/04/03 13:45:25;;;;;;;0.22;0.03;;;;;;;;;;4986452;28;20041;-89
2024/04/03 13:47:51;;;;;;;0.17;0.17;;;;;;;;;;4990107;28;20125;-88
2024/04/03 13:50:17;;;;;;;0.45;0.17;;;;;;;;;;4995022;28;20129;-88
2024/04/03 13:52:43;;;;;;;1.73;0.40;;;;;;;;;;4983455;28;20046;-89
2024/04/03 13:55:09;;;;;;;3.30;0.38;;;;;;;;;;4999491;28;20073;-88
2024/04/03 13:57:36;;;;;;;0.10;0.10;;;;;;;;;;4998762;28;20370;-89
2024/04/03 14:00:02;;;;;;;0.28;0.05;;;;;;;;;;4995356;28;20064;-89
2024/04/03 14:02:28;;;;;;;0.98;0.05;;;;;;;;;;4991009;28;20035;-88
2024/04/03 14:04:57;;;;;;;0.10;0.10;;;;;;;;;;4993382;28;20030;-88
2024/04/03 14:07:23;;;;;;;0.35;0.32;;;;;;;;;;4970867;28;20050;-88
2024/04/03 14:09:49;;;;;;;1.83;0.13;;;;;;;;;;4978824;28;20026;-88
2024/04/03 14:12:15;;;;;;;2.45;0.10;;;;;;;;;;4983047;28;20026;-88
2024/04/03 14:14:43;;;;;;;2.60;1.65;;;;;;;;;;4980601;28;20140;-88
2024/04/03 14:17:12;;;;;;;5.57;1.30;;;;;;;;;;4987276;28;20035;-88
2024/04/03 14:19:38;;;;;;;3.83;0.55;;;;;;;;;;4994460;28;21070;-87
2024/04/03 14:22:04;;;;;;;1.85;0.10;;;;;;;;;;4987016;28;20030;-89
2024/04/03 14:24:30;;;;;;;0.08;0.00;;;;;;;;;;4987809;28;20043;-89
2024/04/03 14:26:56;;;;;;;0.28;0.20;;;;;;;;;;4986807;28;20041;-90
2024/04/03 14:29:22;;;;;;;2.10;0.15;;;;;;;;;;4986837;28;20030;-89
2024/04/03 14:31:48;;;;;;;0.20;0.10;;;;;;;;;;4995720;28;20802;-89
2024/04/03 14:34:14;;;;;;;0.47;0.47;;;;;;;;;;4986774;28;20034;-90
2024/04/03 14:36:46;;;;;;;3.95;0.43;;;;;;;;;;4991884;28;20049;-91
2024/04/03 14:39:14;;;;;;;0.57;0.22;;;;;;;;;;4986805;28;20026;-90
2024/04/03 14:41:40;;;;;;;0.40;0.32;;;;;;;;;;4985606;28;20044;-89
2024/04/03 14:44:06;;;;;;;0.10;0.10;;;;;;;;;;4978336;28;20030;-91
2024/04/03 14:46:33;;;;;;;0.32;0.10;;;;;;;;;;4983567;28;20088;-90